Time;durP1;ratioP1;P1;durP2;ratioP2;P2;SDS_P1;SDS_P2;PMS_P1;PMS_P2;Temp;Humidity;BMP_temperature;BMP_pressure;BME280_temperature;BME280_humidity;BME280_pressure;Samples;Min_cycle;Max_cycle;Signal;HPM_P1;HPM_P2
2022/01/12 00:01:22;;;;;;;34.92;20.77;;;;;;;-0.47;97.30;103036.03;4980894;28;20146;-88
2022/01/12 00:03:48;;;;;;;36.95;21.63;;;;;;;-0.52;97.59;103030.16;4980282;28;20453;-87
2022/01/12 00:06:16;;;;;;;38.67;20.65;;;;;;;-0.59;97.54;103017.41;4981037;28;20051;-88
2022/01/12 00:08:45;;;;;;;40.45;21.38;;;;;;;-0.53;97.67;103022.47;4981732;28;20031;-88
2022/01/12 00:11:12;;;;;;;36.42;20.50;;;;;;;-0.21;97.15;103037.31;4980582;28;20054;-87
2022/01/12 00:13:38;;;;;;;37.65;21.08;;;;;;;-0.48;97.22;103029.22;4981307;28;20081;-87
2022/01/12 00:16:06;;;;;;;37.35;21.20;;;;;;;-0.42;96.97;103029.09;4980976;28;20109;-88
2022/01/12 00:18:34;;;;;;;34.95;20.92;;;;;;;-0.55;97.59;103009.63;4980474;28;20314;-88
2022/01/12 00:21:01;;;;;;;37.33;20.52;;;;;;;-0.39;97.31;103023.88;4980325;28;20105;-88
2022/01/12 00:23:28;;;;;;;36.53;20.25;;;;;;;-0.52;96.89;103004.44;4980985;28;20077;-88
2022/01/12 00:26:00;;;;;;;39.47;20.52;;;;;;;-0.43;97.47;103027.38;4980461;28;20054;-87
2022/01/12 00:34:24;;;;;;;39.25;19.35;;;;;;;-0.59;97.28;103007.13;4963112;28;20055;-87
2022/01/12 00:36:51;;;;;;;35.53;19.52;;;;;;;-0.58;97.51;103030.25;4971966;28;20090;-87
2022/01/12 00:39:17;;;;;;;36.30;20.05;;;;;;;-0.80;97.34;103003.19;4982086;28;20134;-87
2022/01/12 00:41:48;;;;;;;33.38;19.80;;;;;;;-0.80;97.60;103034.88;4981576;28;20467;-87
2022/01/12 00:44:23;;;;;;;34.55;19.60;;;;;;;-0.74;97.66;103037.34;4993165;28;20502;-87
2022/01/12 00:46:51;;;;;;;35.03;19.75;;;;;;;-0.86;97.56;103034.97;4980326;28;20054;-87
2022/01/12 00:49:18;;;;;;;35.83;19.52;;;;;;;-0.94;97.62;103035.97;4980773;28;20043;-89
2022/01/12 00:51:55;;;;;;;32.53;18.95;;;;;;;-0.93;98.24;103032.53;4981915;28;20201;-87
2022/01/12 00:54:25;;;;;;;41.47;19.83;;;;;;;-1.09;98.05;103008.81;4986016;28;20090;-87
2022/01/12 00:56:53;;;;;;;38.50;20.15;;;;;;;-0.98;98.18;103014.63;4985442;28;20039;-86
2022/01/12 00:59:20;;;;;;;36.35;19.77;;;;;;;-1.02;97.91;103021.53;4985193;28;20050;-88
2022/01/12 01:01:47;;;;;;;41.97;20.80;;;;;;;-0.92;98.05;103039.34;4986266;28;20050;-88
2022/01/12 01:04:15;;;;;;;35.00;20.80;;;;;;;-1.01;97.97;103048.94;4985144;28;20051;-89
2022/01/12 01:06:45;;;;;;;36.67;19.95;;;;;;;-0.94;97.84;103056.53;4985758;28;20074;-89
2022/01/12 01:09:12;;;;;;;38.80;20.33;;;;;;;-0.88;97.91;103062.41;4984848;28;20110;-89
2022/01/12 01:11:41;;;;;;;41.75;19.63;;;;;;;-0.98;98.11;103067.75;4984228;28;20499;-89
2022/01/12 01:14:20;;;;;;;37.03;20.02;;;;;;;-1.03;98.01;103070.38;4984712;28;20051;-88
2022/01/12 01:16:54;;;;;;;37.00;20.65;;;;;;;-1.20;97.89;103038.94;4984409;28;20061;-87
2022/01/12 01:27:35;;;;;;;36.20;20.63;;;;;;;-1.05;98.36;103064.41;5000000;28;20050;-89
2022/01/12 01:30:04;;;;;;;38.75;19.33;;;;;;;-1.14;98.26;103057.69;5000317;28;20051;-88
2022/01/12 01:32:31;;;;;;;35.22;18.95;;;;;;;-1.21;97.82;103053.50;4983137;28;20034;-89
2022/01/12 01:34:58;;;;;;;34.13;19.27;;;;;;;-1.15;98.14;103067.97;4984184;28;20050;-89
2022/01/12 01:37:25;;;;;;;40.40;19.67;;;;;;;-0.96;98.11;103107.13;4982760;28;20362;-88
2022/01/12 01:39:51;;;;;;;36.25;19.95;;;;;;;-0.87;98.08;103099.25;4982476;28;20046;-88
2022/01/12 01:42:23;;;;;;;36.38;19.50;;;;;;;-0.96;98.05;103096.84;4982551;28;20141;-88
2022/01/12 01:53:32;;;;;;;35.30;19.58;;;;;;;-0.98;97.61;103093.44;4967520;28;20066;-88
2022/01/12 01:55:59;;;;;;;33.63;18.63;;;;;;;-1.07;97.36;103085.00;4981906;28;20150;-86
2022/01/12 01:58:26;;;;;;;35.88;19.55;;;;;;;-1.00;97.67;103103.75;4982362;28;20106;-88
2022/01/12 02:00:53;;;;;;;33.83;18.63;;;;;;;-0.98;97.34;103101.16;4981165;28;20078;-88
2022/01/12 02:03:25;;;;;;;34.05;18.23;;;;;;;-0.90;97.32;103113.00;4981714;28;20057;-87
2022/01/12 02:05:52;;;;;;;35.08;17.52;;;;;;;-0.96;97.40;103104.56;4982883;28;20057;-87
2022/01/12 02:08:19;;;;;;;37.60;19.92;;;;;;;-0.95;97.54;103101.13;4982010;28;20081;-87
2022/01/12 02:10:46;;;;;;;33.15;17.92;;;;;;;-1.03;97.26;103089.22;4981458;28;20051;-88
2022/01/12 02:13:12;;;;;;;34.88;18.67;;;;;;;-0.97;97.36;103093.44;4981627;28;20051;-87
2022/01/12 02:15:44;;;;;;;33.10;17.80;;;;;;;-0.87;97.34;103122.41;4981944;28;20089;-88
2022/01/12 02:18:17;;;;;;;26.48;14.52;;;;;;;-0.76;97.40;103147.09;4981712;28;20149;-88
2022/01/12 02:40:10;;;;;;;33.17;18.63;;;;;;;-0.74;96.91;103116.22;4981320;28;20076;-88
2022/01/12 02:42:44;;;;;;;38.08;18.80;;;;;;;-0.76;97.21;103089.66;4981234;28;20058;-88
2022/01/12 02:50:46;;;;;;;34.17;19.48;;;;;;;-0.71;97.42;103095.59;4982550;28;20077;-88
2022/01/12 02:56:00;;;;;;;28.23;16.85;;;;;;;-0.75;97.72;103088.81;4982368;28;20071;-88
2022/01/12 02:58:26;;;;;;;32.95;17.60;;;;;;;-0.73;97.35;103102.47;4982532;28;20062;-88
2022/01/12 03:03:39;;;;;;;41.70;20.50;;;;;;;-0.78;97.99;103058.84;4982555;28;20551;-88
2022/01/12 03:06:07;;;;;;;35.45;18.80;;;;;;;-0.67;97.79;103066.41;4982479;28;20054;-88
2022/01/12 03:08:37;;;;;;;36.30;18.75;;;;;;;-0.53;97.46;103073.88;4982453;28;20055;-88
2022/01/12 03:11:05;;;;;;;34.85;18.20;;;;;;;-0.72;96.95;103058.75;4982962;28;20042;-88
2022/01/12 03:13:32;;;;;;;31.73;18.02;;;;;;;-0.68;97.56;103074.97;4982581;28;20050;-87
2022/01/12 03:15:59;;;;;;;33.63;18.48;;;;;;;-0.60;97.47;103078.28;4982605;28;20393;-87
2022/01/12 03:18:26;;;;;;;33.83;17.52;;;;;;;-0.59;96.95;103099.72;4982138;28;20514;-86
2022/01/12 03:20:53;;;;;;;34.40;18.08;;;;;;;-0.67;97.26;103107.53;4981903;28;20467;-87
2022/01/12 03:23:19;;;;;;;33.78;17.80;;;;;;;-0.68;97.16;103098.97;4982266;28;20054;-87
2022/01/12 03:25:49;;;;;;;36.00;18.50;;;;;;;-0.77;97.15;103100.81;4982088;28;20066;-86
2022/01/12 03:28:16;;;;;;;32.22;17.67;;;;;;;-0.87;97.61;103079.53;4982675;28;20046;-87
2022/01/12 03:30:52;;;;;;;33.22;18.92;;;;;;;-0.79;97.20;103088.00;4982615;28;20043;-87
2022/01/12 03:33:34;;;;;;;29.55;17.50;;;;;;;-0.82;97.47;103097.47;4982014;28;20059;-87
2022/01/12 04:09:03;;;;;;;34.78;17.77;;;;;;;-0.48;96.62;103108.09;4981187;28;20074;-87
2022/01/12 04:11:30;;;;;;;34.25;18.75;;;;;;;-0.65;96.44;103116.06;4980326;28;20464;-87
2022/01/12 04:13:56;;;;;;;29.80;17.20;;;;;;;-0.66;96.82;103114.38;4980591;28;20421;-87
2022/01/12 04:16:23;;;;;;;35.42;18.77;;;;;;;-0.62;96.73;103136.59;4980506;28;20070;-87
2022/01/12 04:18:50;;;;;;;33.13;17.52;;;;;;;-0.63;96.47;103126.34;4981839;28;20131;-87
2022/01/12 04:21:23;;;;;;;31.30;18.10;;;;;;;-0.77;97.18;103106.81;4982576;28;20475;-87
2022/01/12 04:23:51;;;;;;;31.83;19.08;;;;;;;-0.63;97.38;103124.63;4981990;28;20043;-87
2022/01/12 04:26:18;;;;;;;31.80;17.80;;;;;;;-0.62;97.39;103141.75;4981659;28;20046;-87
2022/01/12 04:28:45;;;;;;;31.73;17.65;;;;;;;-0.57;97.55;103137.38;4981177;28;20105;-87
2022/01/12 04:31:13;;;;;;;30.52;17.25;;;;;;;-0.58;97.32;103139.97;4980535;28;20047;-87
2022/01/12 04:33:42;;;;;;;34.33;18.55;;;;;;;-0.57;96.93;103133.97;4981980;28;20051;-87
2022/01/12 04:36:10;;;;;;;32.58;17.52;;;;;;;-0.56;97.26;103131.38;4981643;28;20400;-86
2022/01/12 04:38:39;;;;;;;31.85;17.42;;;;;;;-0.57;96.77;103121.97;4980717;28;20397;-87
2022/01/12 04:41:09;;;;;;;28.83;17.33;;;;;;;-0.49;96.82;103135.56;4981834;28;20101;-87
2022/01/12 04:43:37;;;;;;;28.85;17.45;;;;;;;-0.49;96.95;103132.97;4982284;28;20042;-87
2022/01/12 04:46:23;;;;;;;30.95;17.15;;;;;;;-0.47;96.87;103126.06;4984205;28;20051;-87
2022/01/12 04:49:07;;;;;;;34.42;17.50;;;;;;;-0.41;96.41;103119.97;4980113;28;20118;-88
2022/01/12 04:51:36;;;;;;;29.00;17.05;;;;;;;-0.50;96.69;103107.28;4983374;28;20050;-89
2022/01/12 04:54:10;;;;;;;29.42;16.92;;;;;;;-0.56;96.77;103102.22;4982245;28;20058;-88
2022/01/12 04:56:38;;;;;;;27.90;16.02;;;;;;;-0.42;96.20;103116.53;4980265;28;20407;-89
2022/01/12 04:59:06;;;;;;;27.95;15.90;;;;;;;-0.47;96.12;103109.78;4982575;28;20054;-88
2022/01/12 05:01:36;;;;;;;31.75;17.50;;;;;;;-0.32;96.23;103131.84;4984084;28;20434;-87
2022/01/12 05:06:57;;;;;;;27.27;16.00;;;;;;;-0.39;95.65;103118.22;4980633;28;20065;-88
2022/01/12 05:09:47;;;;;;;33.53;17.77;;;;;;;-0.29;96.21;103124.06;4980850;28;20081;-88
2022/01/12 05:15:07;;;;;;;29.45;17.15;;;;;;;-0.37;96.56;103122.47;4980614;28;20234;-89
2022/01/12 05:18:19;;;;;;;32.15;17.20;;;;;;;-0.39;96.43;103121.63;4980831;28;20043;-89
2022/01/12 05:20:49;;;;;;;28.80;15.75;;;;;;;-0.30;96.43;103117.22;4963050;28;20428;-89
2022/01/12 05:23:16;;;;;;;28.05;16.83;;;;;;;-0.15;95.76;103116.97;4980339;28;20141;-88
2022/01/12 05:25:46;;;;;;;31.13;17.15;;;;;;;-0.14;95.79;103123.81;4979896;28;20067;-88
2022/01/12 05:28:16;;;;;;;30.45;16.48;;;;;;;-0.12;95.26;103137.50;4978474;28;20127;-87
2022/01/12 05:30:44;;;;;;;27.10;16.70;;;;;;;-0.20;95.50;103139.34;4979032;28;20063;-88
2022/01/12 05:33:48;;;;;;;26.77;16.33;;;;;;;-0.16;95.43;103156.44;4978555;28;20042;-87
2022/01/12 05:53:40;;;;;;;;;;;;;;;;;;;;;
2022/01/12 06:15:53;;;;;;;33.33;17.55;;;;;;;0.16;95.67;103153.31;4832611;29;20143;-91
2022/01/12 06:23:50;;;;;;;29.42;17.00;;;;;;;-0.02;96.12;103141.63;4916737;29;20036;-90
2022/01/12 06:43:06;;;;;;;29.17;17.17;;;;;;;-0.37;97.13;103145.63;4806794;29;20065;-88
2022/01/12 06:46:09;;;;;;;31.27;18.20;;;;;;;-0.38;97.16;103140.50;4811427;29;20058;-88
2022/01/12 07:17:28;;;;;;;31.48;18.42;;;;;;;-0.49;97.51;103176.69;5003688;28;20101;-82
2022/01/12 07:19:55;;;;;;;32.97;18.52;;;;;;;-0.41;97.71;103203.13;5005782;28;20050;-82
2022/01/12 07:22:21;;;;;;;35.85;18.58;;;;;;;-0.46;96.73;103192.06;5003419;28;20076;-83
2022/01/12 07:24:48;;;;;;;34.67;18.98;;;;;;;-0.27;96.61;103214.94;5001557;28;20155;-83
2022/01/12 07:27:15;;;;;;;31.55;18.25;;;;;;;-0.26;96.79;103214.06;5002000;28;20109;-84
2022/01/12 07:29:41;;;;;;;33.95;18.65;;;;;;;-0.21;96.60;103225.16;5000555;28;20116;-84
2022/01/12 07:32:08;;;;;;;31.15;17.95;;;;;;;-0.14;96.75;103235.31;5000434;28;20570;-82
2022/01/12 07:34:36;;;;;;;36.08;20.23;;;;;;;-0.01;96.49;103238.56;5002393;28;20514;-83
2022/01/12 07:37:03;;;;;;;45.03;21.42;;;;;;;0.00;96.41;103240.25;5001641;28;20052;-83
2022/01/12 07:39:30;;;;;;;30.13;17.88;;;;;;;0.11;95.52;103258.09;5006840;28;20057;-83
2022/01/12 07:41:57;;;;;;;29.40;17.73;;;;;;;0.03;95.67;103250.47;5015051;28;20042;-82
2022/01/12 07:44:23;;;;;;;30.98;17.63;;;;;;;0.10;95.56;103258.97;5013178;28;20061;-83
2022/01/12 07:46:50;;;;;;;29.02;17.70;;;;;;;0.21;95.58;103255.34;5011327;28;20054;-83
2022/01/12 07:49:17;;;;;;;28.90;17.35;;;;;;;0.13;95.13;103248.63;5000408;28;20057;-83
2022/01/12 07:51:45;;;;;;;29.55;17.02;;;;;;;0.15;95.18;103260.59;5000967;28;20141;-83
2022/01/12 07:54:11;;;;;;;27.25;16.63;;;;;;;0.22;94.63;103258.78;5000923;28;20507;-83
2022/01/12 07:56:38;;;;;;;29.63;16.58;;;;;;;0.42;94.58;103273.91;5001630;28;20382;-83
2022/01/12 07:59:05;;;;;;;30.75;17.52;;;;;;;0.39;94.09;103279.09;5001353;28;20061;-82
2022/01/12 08:01:31;;;;;;;28.77;16.67;;;;;;;0.33;94.13;103280.06;5000753;28;20058;-83
2022/01/12 08:03:58;;;;;;;27.33;16.13;;;;;;;0.27;93.50;103278.44;5001250;28;20054;-82
2022/01/12 08:06:25;;;;;;;28.05;17.20;;;;;;;0.36;93.47;103299.75;5000694;28;20054;-81
2022/01/12 08:08:53;;;;;;;25.92;16.35;;;;;;;0.56;93.90;103295.09;5000653;28;20050;-81
2022/01/12 08:11:19;;;;;;;30.45;16.90;;;;;;;0.58;94.05;103301.06;4999737;28;20133;-81
2022/01/12 08:13:46;;;;;;;30.98;16.48;;;;;;;0.65;93.29;103297.50;5001411;28;20074;-84
2022/01/12 08:16:13;;;;;;;32.80;16.42;;;;;;;0.64;93.15;103303.53;5001305;28;20046;-83
2022/01/12 08:18:40;;;;;;;28.08;16.30;;;;;;;0.70;93.31;103305.16;5000876;28;20058;-83
2022/01/12 08:21:06;;;;;;;31.40;16.73;;;;;;;0.64;93.03;103312.13;5000161;28;20082;-83
2022/01/12 08:23:33;;;;;;;31.05;16.40;;;;;;;0.76;93.24;103311.06;5000153;28;20058;-83
2022/01/12 08:26:01;;;;;;;28.30;16.58;;;;;;;0.74;92.97;103305.09;4999991;28;20089;-83
2022/01/12 08:28:28;;;;;;;25.10;16.23;;;;;;;0.78;92.74;103304.16;4999685;28;20102;-83
2022/01/12 08:30:54;;;;;;;27.83;16.67;;;;;;;0.78;92.53;103299.00;4999864;28;20129;-83
2022/01/12 08:33:22;;;;;;;27.15;15.93;;;;;;;0.85;92.42;103295.44;4999485;28;20108;-82
2022/01/12 08:35:49;;;;;;;28.55;16.90;;;;;;;0.88;92.27;103295.38;4999355;28;20046;-83
2022/01/12 08:38:18;;;;;;;26.90;16.08;;;;;;;0.87;91.97;103304.00;4999769;28;20096;-82
2022/01/12 08:40:45;;;;;;;28.38;18.27;;;;;;;0.90;92.54;103298.78;5000042;28;20100;-82
2022/01/12 08:43:14;;;;;;;28.92;16.52;;;;;;;0.99;92.08;103296.00;4999154;28;20050;-79
2022/01/12 08:45:40;;;;;;;24.92;15.23;;;;;;;0.98;91.67;103296.88;4998827;28;20112;-82
2022/01/12 08:48:07;;;;;;;25.73;16.85;;;;;;;0.99;92.00;103288.28;5000139;28;20050;-83
2022/01/12 08:50:34;;;;;;;38.22;23.02;;;;;;;1.04;92.25;103290.75;5000011;28;20146;-83
2022/01/12 08:53:00;;;;;;;26.42;16.90;;;;;;;1.12;91.94;103303.50;5000444;28;20070;-83
2022/01/12 08:55:27;;;;;;;31.23;17.15;;;;;;;1.16;91.62;103312.88;4999067;28;20081;-82
2022/01/12 08:57:56;;;;;;;29.05;17.40;;;;;;;0.88;92.83;103310.84;4999639;28;20051;-82
2022/01/12 09:00:24;;;;;;;29.25;17.23;;;;;;;0.92;92.90;103327.13;5000130;28;20111;-83
2022/01/12 09:02:51;;;;;;;27.58;17.02;;;;;;;0.96;92.77;103327.00;5000352;28;20078;-82
2022/01/12 09:05:18;;;;;;;30.25;17.30;;;;;;;1.07;92.94;103323.38;5001214;28;20101;-82
2022/01/12 09:07:45;;;;;;;27.88;16.65;;;;;;;1.14;92.91;103338.72;5001005;28;20088;-83
2022/01/12 09:10:12;;;;;;;32.53;17.08;;;;;;;1.24;92.39;103334.22;5001201;28;20050;-83
2022/01/12 09:12:40;;;;;;;27.50;17.55;;;;;;;1.19;92.39;103344.63;5002479;28;20078;-83
2022/01/12 09:15:08;;;;;;;29.38;17.50;;;;;;;1.24;92.57;103349.69;5004127;28;20124;-83
2022/01/12 09:17:37;;;;;;;29.77;17.42;;;;;;;1.29;92.77;103358.19;5003782;28;20082;-83
2022/01/12 09:20:06;;;;;;;28.85;16.80;;;;;;;1.24;92.17;103375.50;5005059;28;20050;-83
2022/01/12 09:22:33;;;;;;;29.13;17.17;;;;;;;1.23;92.33;103368.63;5004811;28;20058;-83
2022/01/12 09:25:00;;;;;;;26.02;16.30;;;;;;;1.24;92.51;103354.84;5005000;28;20050;-82
2022/01/12 09:27:27;;;;;;;35.05;17.35;;;;;;;1.30;92.45;103359.91;5004603;28;20056;-84
2022/01/12 09:29:53;;;;;;;26.65;15.95;;;;;;;1.49;91.44;103366.38;5005545;28;20077;-83
2022/01/12 09:32:20;;;;;;;25.95;16.00;;;;;;;1.45;91.04;103367.31;5006004;28;20499;-83
2022/01/12 09:34:48;;;;;;;39.38;20.95;;;;;;;1.44;91.24;103373.34;5004870;28;20126;-82
2022/01/12 09:37:15;;;;;;;30.45;18.27;;;;;;;1.51;91.42;103361.19;5006739;28;20132;-84
2022/01/12 09:39:41;;;;;;;26.10;16.52;;;;;;;1.51;91.21;103364.63;5005186;28;20090;-82
2022/01/12 09:42:09;;;;;;;27.75;17.30;;;;;;;1.38;90.59;103350.28;5005259;28;20054;-82
2022/01/12 09:44:43;;;;;;;24.50;15.82;;;;;;;1.51;90.48;103372.34;5003964;28;20088;-81
2022/01/12 09:47:09;;;;;;;26.10;16.05;;;;;;;1.66;90.64;103382.38;5002823;28;20066;-81
2022/01/12 09:49:36;;;;;;;29.17;16.48;;;;;;;1.72;91.24;103372.81;5002015;28;20130;-80
2022/01/12 09:52:06;;;;;;;28.55;16.80;;;;;;;1.79;91.35;103371.81;5002843;28;20502;-80
2022/01/12 09:54:32;;;;;;;30.75;17.35;;;;;;;1.93;91.32;103362.00;4997688;28;20066;-82
2022/01/12 09:56:59;;;;;;;33.63;18.95;;;;;;;2.00;91.62;103371.31;4993153;28;20046;-81
2022/01/12 09:59:27;;;;;;;34.10;18.77;;;;;;;1.98;91.66;103371.34;4992630;28;20110;-81
2022/01/12 10:01:55;;;;;;;28.40;16.98;;;;;;;1.98;91.52;103368.78;4992928;28;20480;-81
2022/01/12 10:04:24;;;;;;;37.38;18.77;;;;;;;1.98;92.24;103362.75;4989999;28;20525;-81
2022/01/12 10:06:53;;;;;;;34.78;18.10;;;;;;;2.00;92.51;103366.16;4991442;28;20134;-81
2022/01/12 10:09:25;;;;;;;40.40;18.88;;;;;;;2.04;92.76;103365.22;4992660;28;20085;-81
2022/01/12 10:11:56;;;;;;;31.80;17.27;;;;;;;2.06;93.37;103362.59;4987671;28;20077;-80
2022/01/12 10:14:25;;;;;;;31.85;18.35;;;;;;;2.08;93.22;103372.00;4992226;28;20136;-81
2022/01/12 10:16:54;;;;;;;30.05;16.30;;;;;;;2.06;93.20;103363.44;4990788;28;20105;-81
2022/01/12 10:19:28;;;;;;;30.65;16.65;;;;;;;2.12;93.39;103365.88;4989990;28;20082;-81
2022/01/12 10:21:55;;;;;;;33.88;17.63;;;;;;;2.23;93.19;103358.75;4991579;28;20070;-81
2022/01/12 10:24:25;;;;;;;29.08;16.88;;;;;;;2.27;93.85;103362.13;4994573;28;20129;-80
2022/01/12 10:26:53;;;;;;;28.05;16.40;;;;;;;2.33;93.13;103352.47;4992047;28;20054;-81
2022/01/12 10:29:21;;;;;;;33.80;17.15;;;;;;;2.42;93.12;103360.88;4989875;28;20050;-81
2022/01/12 10:31:51;;;;;;;27.60;16.70;;;;;;;2.43;92.77;103362.56;4983065;28;20141;-81
2022/01/12 10:34:19;;;;;;;31.77;16.95;;;;;;;2.44;92.86;103359.09;4990732;28;20130;-81
2022/01/12 10:36:48;;;;;;;31.70;17.30;;;;;;;2.51;92.72;103360.66;4992722;28;20558;-82
2022/01/12 10:39:16;;;;;;;29.40;16.30;;;;;;;2.53;92.62;103362.31;4989837;28;20089;-81
2022/01/12 10:42:00;;;;;;;30.45;16.98;;;;;;;2.58;91.91;103363.06;4991097;28;20089;-80
2022/01/12 10:44:30;;;;;;;32.55;17.55;;;;;;;2.57;91.93;103360.50;4988780;28;20078;-80
2022/01/12 10:47:17;;;;;;;34.63;17.52;;;;;;;2.62;92.00;103359.50;4988548;28;20047;-80
2022/01/12 10:49:47;;;;;;;31.80;17.45;;;;;;;2.73;91.58;103361.84;4988182;28;20525;-80
2022/01/12 10:52:15;;;;;;;37.40;17.38;;;;;;;2.77;91.67;103367.78;4989348;28;20105;-80
2022/01/12 10:54:50;;;;;;;35.28;17.20;;;;;;;2.68;91.50;103376.59;4988605;28;20439;-80
2022/01/12 10:57:22;;;;;;;31.83;18.25;;;;;;;2.62;91.38;103379.34;4989188;28;20137;-80
2022/01/12 11:00:01;;;;;;;23.58;12.82;;;;;;;2.69;91.84;103380.03;4987785;28;20054;-81
2022/01/12 11:02:29;;;;;;;40.22;19.02;;;;;;;2.71;91.11;103379.13;4987854;28;20077;-80
2022/01/12 11:04:57;;;;;;;39.58;19.40;;;;;;;2.59;91.20;103366.50;4990403;28;20601;-80
2022/01/12 11:07:25;;;;;;;35.38;19.00;;;;;;;2.69;91.37;103362.78;4987708;28;20468;-78
2022/01/12 11:09:55;;;;;;;35.78;19.90;;;;;;;2.63;91.42;103355.19;4988478;28;20104;-80
2022/01/12 11:12:23;;;;;;;33.95;18.63;;;;;;;2.78;91.79;103359.97;4988367;28;20137;-81
2022/01/12 11:14:50;;;;;;;37.05;18.90;;;;;;;2.76;91.86;103372.09;4988568;28;20109;-80
2022/01/12 11:17:17;;;;;;;43.92;20.38;;;;;;;2.91;92.51;103374.28;4988427;28;20206;-80
2022/01/12 11:19:51;;;;;;;44.00;20.65;;;;;;;2.89;92.83;103378.63;4989272;28;20085;-80
2022/01/12 11:22:29;;;;;;;42.08;21.48;;;;;;;2.83;93.13;103377.97;4988421;28;20111;-80
2022/01/12 11:24:56;;;;;;;52.88;22.83;;;;;;;2.92;92.87;103375.97;4978996;28;20058;-81
2022/01/12 11:27:24;;;;;;;50.08;22.60;;;;;;;2.87;93.58;103383.00;4979528;28;20150;-80
2022/01/12 11:29:51;;;;;;;51.53;22.08;;;;;;;2.89;93.26;103377.78;4985642;28;20709;-80
2022/01/12 11:32:23;;;;;;;50.28;23.00;;;;;;;2.78;93.48;103370.31;4988236;28;20459;-80
2022/01/12 11:34:59;;;;;;;51.38;24.67;;;;;;;2.74;94.23;103376.47;4990565;28;20503;-79
2022/01/12 11:37:26;;;;;;;59.72;25.70;;;;;;;2.63;94.77;103374.13;4989832;28;20050;-80
2022/01/12 11:39:53;;;;;;;71.55;25.58;;;;;;;2.70;95.01;103384.31;4989425;28;20051;-81
2022/01/12 11:42:20;;;;;;;68.38;26.52;;;;;;;2.52;96.01;103383.03;4988082;28;20050;-81
2022/01/12 11:44:48;;;;;;;69.53;26.80;;;;;;;2.52;96.27;103367.53;4987683;28;20478;-81
2022/01/12 11:47:16;;;;;;;68.88;27.73;;;;;;;2.62;96.09;103380.19;4987898;28;20077;-80
2022/01/12 11:49:45;;;;;;;81.32;28.52;;;;;;;2.56;96.50;103376.91;4990579;28;20581;-81
2022/01/12 11:52:16;;;;;;;81.93;29.02;;;;;;;2.52;96.71;103377.88;4992413;28;20482;-80
2022/01/12 11:54:45;;;;;;;83.90;29.42;;;;;;;2.48;96.81;103373.66;4990783;28;20628;-80
2022/01/12 11:57:18;;;;;;;85.65;28.67;;;;;;;2.56;96.83;103382.91;4994140;28;20499;-80
2022/01/12 11:59:55;;;;;;;88.38;30.38;;;;;;;2.60;96.54;103389.72;4990539;28;20046;-81
2022/01/12 12:02:32;;;;;;;83.55;30.15;;;;;;;2.64;96.47;103386.19;4982099;28;20089;-80
2022/01/12 12:05:01;;;;;;;84.43;29.52;;;;;;;2.68;96.12;103394.72;4999037;28;20060;-81
2022/01/12 12:07:28;;;;;;;77.03;29.40;;;;;;;2.59;96.90;103384.59;5017198;28;20085;-80
2022/01/12 12:09:58;;;;;;;80.78;28.88;;;;;;;2.65;96.90;103390.47;5000097;28;20154;-80
2022/01/12 12:12:31;;;;;;;88.45;30.08;;;;;;;2.66;96.69;103389.56;4994642;28;20051;-80
2022/01/12 12:15:00;;;;;;;79.55;27.67;;;;;;;2.72;96.18;103396.34;4991662;28;20058;-80
2022/01/12 12:17:29;;;;;;;84.63;27.40;;;;;;;2.67;96.52;103403.34;4994307;28;20137;-80
2022/01/12 12:19:57;;;;;;;85.40;28.20;;;;;;;2.56;97.48;103390.69;4988007;28;20082;-79
2022/01/12 12:22:26;;;;;;;84.80;30.73;;;;;;;2.64;97.64;103399.09;4985500;28;20053;-80
2022/01/12 12:24:56;;;;;;;88.45;30.83;;;;;;;2.66;97.19;103394.75;4994453;28;20954;-80
2022/01/12 12:27:24;;;;;;;85.28;31.98;;;;;;;2.69;97.88;103387.81;4988229;28;20047;-79
2022/01/12 12:29:52;;;;;;;89.80;31.13;;;;;;;2.79;97.17;103376.34;4988481;28;20054;-81
2022/01/12 12:32:32;;;;;;;94.30;34.05;;;;;;;2.86;97.64;103368.38;4985424;28;20055;-79
2022/01/12 12:35:02;;;;;;;82.70;30.38;;;;;;;2.93;97.56;103364.75;4989318;28;20080;-80
2022/01/12 12:37:36;;;;;;;97.55;32.55;;;;;;;2.88;96.83;103365.75;4989631;28;20180;-80
2022/01/12 12:40:14;;;;;;;82.88;31.40;;;;;;;3.03;96.58;103370.53;4989597;28;20155;-82
2022/01/12 12:42:41;;;;;;;78.65;31.05;;;;;;;3.12;96.50;103364.25;4996357;28;20078;-80
2022/01/12 12:45:09;;;;;;;75.85;30.20;;;;;;;3.19;95.93;103358.03;4991354;28;20089;-80
2022/01/12 12:47:37;;;;;;;88.05;30.98;;;;;;;3.04;95.86;103361.03;4988487;28;20069;-79
2022/01/12 12:50:08;;;;;;;86.95;31.55;;;;;;;3.19;96.17;103360.63;4990304;28;20101;-80
2022/01/12 12:52:37;;;;;;;81.97;29.73;;;;;;;2.98;96.19;103357.72;4992443;28;20061;-80
2022/01/12 12:55:11;;;;;;;78.43;30.10;;;;;;;3.19;95.76;103364.06;5003315;28;20403;-81
2022/01/12 12:57:47;;;;;;;88.43;30.88;;;;;;;3.00;95.91;103360.25;5014869;28;20585;-81
2022/01/12 13:00:18;;;;;;;81.05;31.67;;;;;;;3.12;96.12;103374.59;4998263;28;20054;-81
2022/01/12 13:02:49;;;;;;;85.53;29.80;;;;;;;3.13;96.19;103377.16;4998292;28;20077;-81
2022/01/12 13:05:18;;;;;;;78.82;30.25;;;;;;;3.16;95.62;103376.22;4989530;28;20046;-81
2022/01/12 13:07:46;;;;;;;83.70;32.22;;;;;;;3.14;95.80;103378.00;4998796;28;20126;-81
2022/01/12 13:10:15;;;;;;;85.93;30.25;;;;;;;3.06;95.44;103369.59;4996813;28;20579;-80
2022/01/12 13:12:43;;;;;;;88.90;31.83;;;;;;;3.21;96.07;103380.38;5000612;28;20050;-79
2022/01/12 13:15:13;;;;;;;89.18;31.73;;;;;;;3.23;95.45;103382.94;4994872;28;20061;-79
2022/01/12 13:17:41;;;;;;;80.95;30.83;;;;;;;3.17;95.53;103375.34;5043937;23;20101;-80
2022/01/12 13:23:05;;;;;;;84.43;31.45;;;;;;;3.24;95.18;103377.72;4991942;28;20105;-80
2022/01/12 13:25:32;;;;;;;89.68;33.13;;;;;;;3.20;95.39;103368.34;5003331;28;20138;-81
2022/01/12 13:28:01;;;;;;;93.13;35.65;;;;;;;3.18;95.39;103370.13;4987540;28;20082;-80
2022/01/12 13:30:30;;;;;;;75.53;32.03;;;;;;;3.26;96.03;103372.50;4982551;28;20054;-81
2022/01/12 13:33:00;;;;;;;87.65;34.85;;;;;;;3.22;95.64;103368.31;4982494;28;20141;-81
2022/01/12 13:35:30;;;;;;;82.90;33.75;;;;;;;3.25;95.46;103366.47;4984062;28;20070;-80
2022/01/12 13:37:59;;;;;;;85.05;34.38;;;;;;;3.24;95.53;103369.97;4984148;28;20105;-81
2022/01/12 13:40:33;;;;;;;94.95;36.33;;;;;;;3.33;95.46;103371.41;4996928;28;20043;-80
2022/01/12 13:43:03;;;;;;;85.30;33.13;;;;;;;3.26;96.01;103372.50;4990211;28;20070;-80
2022/01/12 13:45:41;;;;;;;87.88;33.67;;;;;;;3.17;96.21;103373.59;4984528;28;20483;-80
2022/01/12 13:48:14;;;;;;;93.72;34.33;;;;;;;3.01;95.93;103361.94;4983889;28;20047;-81
2022/01/12 13:51:03;;;;;;;89.60;33.72;;;;;;;3.11;95.64;103359.97;4980239;28;20050;-80
2022/01/12 13:53:41;;;;;;;83.28;32.55;;;;;;;2.96;96.38;103348.28;4984954;28;20051;-79
2022/01/12 13:56:11;;;;;;;94.45;34.15;;;;;;;2.89;96.15;103342.44;4985181;28;20055;-79
2022/01/12 13:58:48;;;;;;;93.60;33.97;;;;;;;2.97;96.89;103374.13;4982859;28;20050;-80
2022/01/12 14:01:48;;;;;;;94.00;34.33;;;;;;;2.82;96.89;103338.34;4985112;28;20055;-80
2022/01/12 14:08:05;;;;;;;98.50;37.45;;;;;;;3.10;97.46;103361.72;4983005;28;20047;-79
2022/01/12 14:10:42;;;;;;;96.30;35.95;;;;;;;2.94;97.31;103345.75;4981676;28;20511;-81
2022/01/12 14:13:39;;;;;;;96.63;35.75;;;;;;;2.94;97.33;103330.22;4964915;28;20046;-83
2022/01/12 14:16:12;;;;;;;86.80;35.42;;;;;;;3.20;97.33;103364.91;4983065;28;20059;-80
2022/01/12 14:18:58;;;;;;;96.72;35.58;;;;;;;3.12;97.33;103374.59;4984193;28;20074;-80
2022/01/12 14:21:25;;;;;;;85.03;34.65;;;;;;;3.17;97.54;103368.41;4986714;28;20054;-82
2022/01/12 14:24:03;;;;;;;86.80;34.95;;;;;;;3.06;97.73;103362.69;4984184;28;20038;-80
2022/01/12 14:29:40;;;;;;;87.75;34.97;;;;;;;3.11;96.72;103372.91;4981905;28;20054;-81
2022/01/12 14:32:19;;;;;;;92.97;35.15;;;;;;;3.10;97.53;103385.00;4978422;28;20125;-82
2022/01/12 14:35:00;;;;;;;94.03;36.70;;;;;;;3.05;97.36;103388.59;4963255;28;20046;-82
2022/01/12 14:37:27;;;;;;;85.53;34.13;;;;;;;2.93;97.98;103369.06;4978971;28;20082;-84